Nuttsville, Virginia
Current Conditions -  °F | °C
As of 3:15 AM on Monday 26 Jan 2015 (Local Time) from KW75 Reporting Station
Overcast Overcast  
Wind Chill: 38°   Ceiling: 10000
Heat Index: 38°   Visibility: 10mi
Dew Point: 34°   Wind: 3mph
Humidity: 84%   Direction: 110°ESE
Pressure: 29.8"   Gusts: NA
Location:  37.79°N, 76.55°W
Report Text: KW75 260815Z AUTO 11003KT 10SM OVC100 04/01 A2980 RMK AO1 T00350011
Loading
Personal Weather Stations






























Interactive Weather Map New forecast layout! Learn more

10-Day Weather Forecast

Advertisements
Track Severe Weather on mobile